sensor_id;sensor_type;location;lat;lon;timestamp;temperature;humidity
18648;DHT22;9453;50.294;18.644;2023-11-19T05:01:57;1.40;99.90
18648;DHT22;9453;50.294;18.644;2023-11-19T05:04:24;1.40;99.90
18648;DHT22;9453;50.294;18.644;2023-11-19T05:06:51;1.50;99.90
18648;DHT22;9453;50.294;18.644;2023-11-19T05:09:18;1.50;99.90
18648;DHT22;9453;50.294;18.644;2023-11-19T05:11:46;1.50;99.90
18648;DHT22;9453;50.294;18.644;2023-11-19T05:14:15;1.60;99.90
18648;DHT22;9453;50.294;18.644;2023-11-19T05:16:42;1.50;99.90
18648;DHT22;9453;50.294;18.644;2023-11-19T05:19:10;1.60;99.90
18648;DHT22;9453;50.294;18.644;2023-11-19T05:21:37;1.60;99.90
18648;DHT22;9453;50.294;18.644;2023-11-19T05:24:06;1.60;99.90
18648;DHT22;9453;50.294;18.644;2023-11-19T05:26:33;1.70;99.90
18648;DHT22;9453;50.294;18.644;2023-11-19T05:29:00;1.70;99.90
18648;DHT22;9453;50.294;18.644;2023-11-19T05:31:26;1.70;99.90
18648;DHT22;9453;50.294;18.644;2023-11-19T05:33:53;1.70;99.90
18648;DHT22;9453;50.294;18.644;2023-11-19T05:36:22;1.70;99.90
18648;DHT22;9453;50.294;18.644;2023-11-19T05:38:49;1.80;99.90
18648;DHT22;9453;50.294;18.644;2023-11-19T05:41:16;1.70;99.90
18648;DHT22;9453;50.294;18.644;2023-11-19T05:43:43;1.80;99.90
18648;DHT22;9453;50.294;18.644;2023-11-19T05:46:10;1.80;99.90
18648;DHT22;9453;50.294;18.644;2023-11-19T05:48:39;1.80;99.90
18648;DHT22;9453;50.294;18.644;2023-11-19T05:51:06;1.80;99.90
18648;DHT22;9453;50.294;18.644;2023-11-19T05:53:34;1.80;99.90
18648;DHT22;9453;50.294;18.644;2023-11-19T05:56:01;1.90;99.90
18648;DHT22;9453;50.294;18.644;2023-11-19T05:58:29;1.90;99.90
18648;DHT22;9453;50.294;18.644;2023-11-19T06:00:58;2.00;99.90
18648;DHT22;9453;50.294;18.644;2023-11-19T06:03:26;1.90;99.90
18648;DHT22;9453;50.294;18.644;2023-11-19T06:05:53;2.00;99.90
18648;DHT22;9453;50.294;18.644;2023-11-19T06:08:21;2.10;99.90
18648;DHT22;9453;50.294;18.644;2023-11-19T06:10:49;2.00;99.90
18648;DHT22;9453;50.294;18.644;2023-11-19T06:13:17;2.10;99.90
18648;DHT22;9453;50.294;18.644;2023-11-19T06:15:45;2.10;99.90
18648;DHT22;9453;50.294;18.644;2023-11-19T06:18:12;2.10;99.90
18648;DHT22;9453;50.294;18.644;2023-11-19T06:20:40;2.10;99.90
18648;DHT22;9453;50.294;18.644;2023-11-19T06:23:07;2.10;99.90
18648;DHT22;9453;50.294;18.644;2023-11-19T06:25:34;2.20;99.90
18648;DHT22;9453;50.294;18.644;2023-11-19T06:28:04;2.20;99.90
18648;DHT22;9453;50.294;18.644;2023-11-19T06:30:33;2.20;99.90
18648;DHT22;9453;50.294;18.644;2023-11-19T06:33:01;2.30;99.90
18648;DHT22;9453;50.294;18.644;2023-11-19T06:35:29;2.30;99.90
18648;DHT22;9453;50.294;18.644;2023-11-19T06:38:01;2.40;99.90
18648;DHT22;9453;50.294;18.644;2023-11-19T06:40:28;2.30;99.90
18648;DHT22;9453;50.294;18.644;2023-11-19T06:42:56;2.30;99.90
18648;DHT22;9453;50.294;18.644;2023-11-19T06:45:42;2.30;99.90
18648;DHT22;9453;50.294;18.644;2023-11-19T06:48:10;2.30;99.90
18648;DHT22;9453;50.294;18.644;2023-11-19T06:50:36;2.40;99.90
18648;DHT22;9453;50.294;18.644;2023-11-19T06:53:04;2.50;99.90
18648;DHT22;9453;50.294;18.644;2023-11-19T06:55:32;2.50;99.90
18648;DHT22;9453;50.294;18.644;2023-11-19T06:58:00;2.50;99.90
18648;DHT22;9453;50.294;18.644;2023-11-19T07:00:28;2.50;99.90
18648;DHT22;9453;50.294;18.644;2023-11-19T07:02:56;2.70;99.90
18648;DHT22;9453;50.294;18.644;2023-11-19T07:05:23;2.60;99.90
18648;DHT22;9453;50.294;18.644;2023-11-19T07:07:50;2.60;99.90
18648;DHT22;9453;50.294;18.644;2023-11-19T07:10:17;2.60;99.90
18648;DHT22;9453;50.294;18.644;2023-11-19T07:12:44;2.60;99.90
18648;DHT22;9453;50.294;18.644;2023-11-19T07:15:11;2.70;99.90
18648;DHT22;9453;50.294;18.644;2023-11-19T07:17:39;2.70;99.90
18648;DHT22;9453;50.294;18.644;2023-11-19T07:20:10;2.80;99.90
18648;DHT22;9453;50.294;18.644;2023-11-19T07:22:39;2.80;99.90
18648;DHT22;9453;50.294;18.644;2023-11-19T07:25:06;2.80;99.90
18648;DHT22;9453;50.294;18.644;2023-11-19T07:27:34;2.90;99.90
18648;DHT22;9453;50.294;18.644;2023-11-19T07:30:01;3.20;99.90
18648;DHT22;9453;50.294;18.644;2023-11-19T07:32:28;3.00;99.90
18648;DHT22;9453;50.294;18.644;2023-11-19T07:34:54;3.10;99.90
18648;DHT22;9453;50.294;18.644;2023-11-19T07:37:23;3.10;99.90
18648;DHT22;9453;50.294;18.644;2023-11-19T07:39:50;3.20;99.90
18648;DHT22;9453;50.294;18.644;2023-11-19T07:42:17;3.20;99.90
18648;DHT22;9453;50.294;18.644;2023-11-19T07:44:44;3.30;99.90
18648;DHT22;9453;50.294;18.644;2023-11-19T07:47:11;3.30;99.90
18648;DHT22;9453;50.294;18.644;2023-11-19T07:49:39;3.30;99.90
18648;DHT22;9453;50.294;18.644;2023-11-19T07:52:06;3.50;99.90
18648;DHT22;9453;50.294;18.644;2023-11-19T07:54:34;3.60;99.90
18648;DHT22;9453;50.294;18.644;2023-11-19T07:57:01;3.60;99.90
18648;DHT22;9453;50.294;18.644;2023-11-19T07:59:28;3.60;99.90
18648;DHT22;9453;50.294;18.644;2023-11-19T08:01:55;3.60;99.90
18648;DHT22;9453;50.294;18.644;2023-11-19T08:04:23;3.70;99.90
18648;DHT22;9453;50.294;18.644;2023-11-19T08:06:50;3.60;99.90
18648;DHT22;9453;50.294;18.644;2023-11-19T08:09:18;3.70;99.90
18648;DHT22;9453;50.294;18.644;2023-11-19T08:11:46;3.70;99.90
18648;DHT22;9453;50.294;18.644;2023-11-19T08:14:13;3.70;99.90
18648;DHT22;9453;50.294;18.644;2023-11-19T08:16:40;3.70;99.90
18648;DHT22;9453;50.294;18.644;2023-11-19T08:19:07;3.70;99.90
18648;DHT22;9453;50.294;18.644;2023-11-19T08:21:35;3.80;99.90
18648;DHT22;9453;50.294;18.644;2023-11-19T08:24:02;3.60;99.90
18648;DHT22;9453;50.294;18.644;2023-11-19T08:26:29;3.60;99.90
18648;DHT22;9453;50.294;18.644;2023-11-19T08:28:57;3.60;99.90
18648;DHT22;9453;50.294;18.644;2023-11-19T08:31:24;3.70;99.90
18648;DHT22;9453;50.294;18.644;2023-11-19T08:33:52;3.70;99.90
18648;DHT22;9453;50.294;18.644;2023-11-19T08:36:19;3.70;99.90
18648;DHT22;9453;50.294;18.644;2023-11-19T08:38:46;3.80;99.90
18648;DHT22;9453;50.294;18.644;2023-11-19T08:41:14;3.80;99.90
18648;DHT22;9453;50.294;18.644;2023-11-19T08:43:43;3.90;99.90
18648;DHT22;9453;50.294;18.644;2023-11-19T08:46:11;3.90;99.90
18648;DHT22;9453;50.294;18.644;2023-11-19T08:48:39;3.80;99.90
18648;DHT22;9453;50.294;18.644;2023-11-19T08:51:06;3.90;99.90
18648;DHT22;9453;50.294;18.644;2023-11-19T08:53:33;3.90;99.90
18648;DHT22;9453;50.294;18.644;2023-11-19T08:56:00;4.00;99.90
18648;DHT22;9453;50.294;18.644;2023-11-19T08:58:28;4.00;99.90
18648;DHT22;9453;50.294;18.644;2023-11-19T09:00:56;4.10;99.90
18648;DHT22;9453;50.294;18.644;2023-11-19T09:03:24;4.30;99.90
18648;DHT22;9453;50.294;18.644;2023-11-19T09:05:52;4.20;99.90
18648;DHT22;9453;50.294;18.644;2023-11-19T09:08:19;4.20;99.90
18648;DHT22;9453;50.294;18.644;2023-11-19T09:10:46;4.20;99.90
18648;DHT22;9453;50.294;18.644;2023-11-19T09:13:13;4.30;99.90
18648;DHT22;9453;50.294;18.644;2023-11-19T09:15:40;4.30;99.90
18648;DHT22;9453;50.294;18.644;2023-11-19T09:18:08;4.40;99.90
18648;DHT22;9453;50.294;18.644;2023-11-19T09:20:36;4.50;99.90
18648;DHT22;9453;50.294;18.644;2023-11-19T09:23:04;4.50;99.90
18648;DHT22;9453;50.294;18.644;2023-11-19T09:25:31;4.60;99.90
18648;DHT22;9453;50.294;18.644;2023-11-19T09:27:58;4.70;99.90
18648;DHT22;9453;50.294;18.644;2023-11-19T09:30:26;4.70;99.90
18648;DHT22;9453;50.294;18.644;2023-11-19T09:32:53;4.90;99.90
18648;DHT22;9453;50.294;18.644;2023-11-19T09:35:20;4.70;99.90
18648;DHT22;9453;50.294;18.644;2023-11-19T09:37:48;4.90;99.90
18648;DHT22;9453;50.294;18.644;2023-11-19T09:40:15;4.80;99.90
18648;DHT22;9453;50.294;18.644;2023-11-19T09:42:44;4.80;99.90
18648;DHT22;9453;50.294;18.644;2023-11-19T09:45:14;4.80;99.90
18648;DHT22;9453;50.294;18.644;2023-11-19T09:47:43;4.80;99.90
18648;DHT22;9453;50.294;18.644;2023-11-19T09:50:14;4.90;99.90
18648;DHT22;9453;50.294;18.644;2023-11-19T09:52:43;4.90;99.90
18648;DHT22;9453;50.294;18.644;2023-11-19T09:55:12;5.00;99.90
18648;DHT22;9453;50.294;18.644;2023-11-19T09:57:39;5.10;99.90
18648;DHT22;9453;50.294;18.644;2023-11-19T10:00:08;5.10;99.90
18648;DHT22;9453;50.294;18.644;2023-11-19T10:02:36;5.30;99.90
18648;DHT22;9453;50.294;18.644;2023-11-19T10:05:06;5.40;99.90
18648;DHT22;9453;50.294;18.644;2023-11-19T10:07:34;5.60;99.90
18648;DHT22;9453;50.294;18.644;2023-11-19T10:10:01;5.60;99.90
18648;DHT22;9453;50.294;18.644;2023-11-19T10:12:31;5.60;99.90
18648;DHT22;9453;50.294;18.644;2023-11-19T10:14:58;5.70;99.90
18648;DHT22;9453;50.294;18.644;2023-11-19T10:17:28;5.80;99.90
18648;DHT22;9453;50.294;18.644;2023-11-19T10:19:56;5.70;99.90
18648;DHT22;9453;50.294;18.644;2023-11-19T10:22:23;5.80;99.90
18648;DHT22;9453;50.294;18.644;2023-11-19T10:24:50;5.70;99.90
18648;DHT22;9453;50.294;18.644;2023-11-19T10:27:17;5.70;99.90
18648;DHT22;9453;50.294;18.644;2023-11-19T10:29:47;5.50;99.90
18648;DHT22;9453;50.294;18.644;2023-11-19T10:32:14;5.40;99.90
18648;DHT22;9453;50.294;18.644;2023-11-19T10:34:41;5.40;99.90
18648;DHT22;9453;50.294;18.644;2023-11-19T10:37:08;5.20;99.90
18648;DHT22;9453;50.294;18.644;2023-11-19T10:39:52;5.30;99.90
18648;DHT22;9453;50.294;18.644;2023-11-19T10:42:20;5.00;99.90
18648;DHT22;9453;50.294;18.644;2023-11-19T10:44:49;4.90;99.90
18648;DHT22;9453;50.294;18.644;2023-11-19T10:47:18;5.00;99.90
18648;DHT22;9453;50.294;18.644;2023-11-19T10:49:45;4.90;99.90
18648;DHT22;9453;50.294;18.644;2023-11-19T10:52:14;4.80;99.90
18648;DHT22;9453;50.294;18.644;2023-11-19T10:54:44;4.90;99.90
18648;DHT22;9453;50.294;18.644;2023-11-19T10:57:19;4.80;99.90
18648;DHT22;9453;50.294;18.644;2023-11-19T10:59:49;4.70;99.90
18648;DHT22;9453;50.294;18.644;2023-11-19T11:02:22;4.70;99.90
18648;DHT22;9453;50.294;18.644;2023-11-19T11:04:51;4.70;99.90
18648;DHT22;9453;50.294;18.644;2023-11-19T11:07:21;4.60;99.90
18648;DHT22;9453;50.294;18.644;2023-11-19T11:09:51;4.60;99.90
18648;DHT22;9453;50.294;18.644;2023-11-19T11:12:22;4.50;99.90
18648;DHT22;9453;50.294;18.644;2023-11-19T11:14:51;4.40;99.90
18648;DHT22;9453;50.294;18.644;2023-11-19T11:17:20;4.30;99.90
18648;DHT22;9453;50.294;18.644;2023-11-19T11:19:51;4.20;99.90
18648;DHT22;9453;50.294;18.644;2023-11-19T11:22:18;4.10;99.90
18648;DHT22;9453;50.294;18.644;2023-11-19T11:25:04;4.10;99.90
18648;DHT22;9453;50.294;18.644;2023-11-19T11:27:53;4.00;99.90
18648;DHT22;9453;50.294;18.644;2023-11-19T11:30:43;4.00;99.90
18648;DHT22;9453;50.294;18.644;2023-11-19T11:33:26;4.00;99.90
18648;DHT22;9453;50.294;18.644;2023-11-19T11:36:05;4.00;99.90
18648;DHT22;9453;50.294;18.644;2023-11-19T11:38:37;4.00;99.90
18648;DHT22;9453;50.294;18.644;2023-11-19T11:41:21;3.90;99.90
18648;DHT22;9453;50.294;18.644;2023-11-19T11:43:50;3.90;99.90
18648;DHT22;9453;50.294;18.644;2023-11-19T11:46:56;3.90;99.90
18648;DHT22;9453;50.294;18.644;2023-11-19T11:49:25;3.80;99.90
18648;DHT22;9453;50.294;18.644;2023-11-19T11:51:58;3.90;99.90
18648;DHT22;9453;50.294;18.644;2023-11-19T11:54:26;3.90;99.90
18648;DHT22;9453;50.294;18.644;2023-11-19T11:57:02;3.90;99.90
18648;DHT22;9453;50.294;18.644;2023-11-19T11:59:37;4.00;99.90
18648;DHT22;9453;50.294;18.644;2023-11-19T12:02:08;4.00;99.90
18648;DHT22;9453;50.294;18.644;2023-11-19T12:04:36;4.10;99.90
18648;DHT22;9453;50.294;18.644;2023-11-19T12:07:10;4.20;99.90
18648;DHT22;9453;50.294;18.644;2023-11-19T12:09:40;4.20;99.90
18648;DHT22;9453;50.294;18.644;2023-11-19T12:12:13;4.20;99.90
18648;DHT22;9453;50.294;18.644;2023-11-19T12:15:03;4.30;99.90
18648;DHT22;9453;50.294;18.644;2023-11-19T12:17:43;4.20;99.90
18648;DHT22;9453;50.294;18.644;2023-11-19T12:20:15;4.20;99.90
18648;DHT22;9453;50.294;18.644;2023-11-19T12:22:43;4.20;99.90
18648;DHT22;9453;50.294;18.644;2023-11-19T12:25:11;4.30;99.90
18648;DHT22;9453;50.294;18.644;2023-11-19T12:27:40;4.30;99.90
18648;DHT22;9453;50.294;18.644;2023-11-19T12:30:08;4.40;99.90
18648;DHT22;9453;50.294;18.644;2023-11-19T12:32:39;4.30;99.90
18648;DHT22;9453;50.294;18.644;2023-11-19T12:35:09;4.30;99.90
18648;DHT22;9453;50.294;18.644;2023-11-19T12:37:43;4.30;99.90
18648;DHT22;9453;50.294;18.644;2023-11-19T12:40:15;4.40;99.90
18648;DHT22;9453;50.294;18.644;2023-11-19T12:42:43;4.40;99.90
18648;DHT22;9453;50.294;18.644;2023-11-19T12:45:10;4.50;99.90
18648;DHT22;9453;50.294;18.644;2023-11-19T12:47:39;4.50;99.90
18648;DHT22;9453;50.294;18.644;2023-11-19T12:50:09;4.60;99.90
18648;DHT22;9453;50.294;18.644;2023-11-19T12:52:37;4.70;99.90
18648;DHT22;9453;50.294;18.644;2023-11-19T12:55:05;4.60;99.90
18648;DHT22;9453;50.294;18.644;2023-11-19T12:57:36;4.70;99.90
18648;DHT22;9453;50.294;18.644;2023-11-19T13:00:05;4.70;99.90
18648;DHT22;9453;50.294;18.644;2023-11-19T13:02:47;4.60;99.90
18648;DHT22;9453;50.294;18.644;2023-11-19T13:05:27;4.60;99.90
18648;DHT22;9453;50.294;18.644;2023-11-19T13:08:00;4.70;99.90
18648;DHT22;9453;50.294;18.644;2023-11-19T13:10:28;4.70;99.90
18648;DHT22;9453;50.294;18.644;2023-11-19T13:13:03;4.60;99.90
18648;DHT22;9453;50.294;18.644;2023-11-19T13:15:30;4.70;99.90
18648;DHT22;9453;50.294;18.644;2023-11-19T13:17:58;4.70;99.90
18648;DHT22;9453;50.294;18.644;2023-11-19T13:20:26;4.60;99.90
18648;DHT22;9453;50.294;18.644;2023-11-19T13:22:57;4.70;99.90
18648;DHT22;9453;50.294;18.644;2023-11-19T13:25:25;4.80;99.90
18648;DHT22;9453;50.294;18.644;2023-11-19T13:27:53;4.80;99.90
18648;DHT22;9453;50.294;18.644;2023-11-19T13:30:21;4.90;99.90
18648;DHT22;9453;50.294;18.644;2023-11-19T13:32:49;4.90;99.90
18648;DHT22;9453;50.294;18.644;2023-11-19T13:35:17;5.00;99.90
18648;DHT22;9453;50.294;18.644;2023-11-19T13:37:45;5.00;99.90
18648;DHT22;9453;50.294;18.644;2023-11-19T13:40:13;5.00;99.90
18648;DHT22;9453;50.294;18.644;2023-11-19T13:42:41;5.00;99.90
18648;DHT22;9453;50.294;18.644;2023-11-19T13:45:09;5.10;99.90
18648;DHT22;9453;50.294;18.644;2023-11-19T13:47:38;5.10;99.90
18648;DHT22;9453;50.294;18.644;2023-11-19T13:50:08;5.10;99.90
18648;DHT22;9453;50.294;18.644;2023-11-19T13:52:36;5.10;99.90
18648;DHT22;9453;50.294;18.644;2023-11-19T13:55:09;5.10;99.90
18648;DHT22;9453;50.294;18.644;2023-11-19T13:57:36;5.10;99.90
18648;DHT22;9453;50.294;18.644;2023-11-19T14:00:05;5.10;99.90
18648;DHT22;9453;50.294;18.644;2023-11-19T14:02:36;5.10;99.90
18648;DHT22;9453;50.294;18.644;2023-11-19T14:05:04;5.30;99.90
18648;DHT22;9453;50.294;18.644;2023-11-19T14:07:31;5.20;99.90
18648;DHT22;9453;50.294;18.644;2023-11-19T14:09:58;5.20;99.90
18648;DHT22;9453;50.294;18.644;2023-11-19T14:12:29;5.20;99.90
18648;DHT22;9453;50.294;18.644;2023-11-19T14:14:56;5.20;99.90
18648;DHT22;9453;50.294;18.644;2023-11-19T14:17:23;5.20;99.90
18648;DHT22;9453;50.294;18.644;2023-11-19T14:19:51;5.20;99.90
18648;DHT22;9453;50.294;18.644;2023-11-19T14:22:18;5.20;99.90
18648;DHT22;9453;50.294;18.644;2023-11-19T14:24:45;5.20;99.90
18648;DHT22;9453;50.294;18.644;2023-11-19T14:27:12;5.20;99.90
18648;DHT22;9453;50.294;18.644;2023-11-19T14:29:41;5.20;99.90
18648;DHT22;9453;50.294;18.644;2023-11-19T14:32:08;5.30;99.90
18648;DHT22;9453;50.294;18.644;2023-11-19T14:34:35;5.40;99.90
18648;DHT22;9453;50.294;18.644;2023-11-19T14:37:03;5.40;99.90
18648;DHT22;9453;50.294;18.644;2023-11-19T14:39:30;5.30;99.90
18648;DHT22;9453;50.294;18.644;2023-11-19T14:41:58;5.30;99.90
18648;DHT22;9453;50.294;18.644;2023-11-19T14:44:29;5.30;99.90
18648;DHT22;9453;50.294;18.644;2023-11-19T14:46:58;5.40;99.90
18648;DHT22;9453;50.294;18.644;2023-11-19T14:49:25;5.30;99.90
18648;DHT22;9453;50.294;18.644;2023-11-19T14:51:53;5.30;99.90
18648;DHT22;9453;50.294;18.644;2023-11-19T14:54:20;5.30;99.90
18648;DHT22;9453;50.294;18.644;2023-11-19T14:56:47;5.30;99.90
18648;DHT22;9453;50.294;18.644;2023-11-19T14:59:14;5.30;99.90
18648;DHT22;9453;50.294;18.644;2023-11-19T15:01:41;5.30;99.90
18648;DHT22;9453;50.294;18.644;2023-11-19T15:04:09;5.30;99.90
18648;DHT22;9453;50.294;18.644;2023-11-19T15:06:37;5.30;99.90
18648;DHT22;9453;50.294;18.644;2023-11-19T15:09:04;5.30;99.90
18648;DHT22;9453;50.294;18.644;2023-11-19T15:11:33;5.30;99.90
18648;DHT22;9453;50.294;18.644;2023-11-19T15:14:00;5.30;99.90
18648;DHT22;9453;50.294;18.644;2023-11-19T15:16:28;5.40;99.90
18648;DHT22;9453;50.294;18.644;2023-11-19T15:18:59;5.30;99.90
18648;DHT22;9453;50.294;18.644;2023-11-19T15:21:30;5.30;99.90
18648;DHT22;9453;50.294;18.644;2023-11-19T15:23:58;5.40;99.90
18648;DHT22;9453;50.294;18.644;2023-11-19T15:26:28;5.40;99.90
18648;DHT22;9453;50.294;18.644;2023-11-19T15:28:55;5.40;99.90
18648;DHT22;9453;50.294;18.644;2023-11-19T15:31:24;5.60;99.90
18648;DHT22;9453;50.294;18.644;2023-11-19T15:33:51;5.40;99.90
18648;DHT22;9453;50.294;18.644;2023-11-19T15:36:18;5.30;99.90
18648;DHT22;9453;50.294;18.644;2023-11-19T15:38:47;5.40;99.90
18648;DHT22;9453;50.294;18.644;2023-11-19T15:41:14;5.40;99.90
18648;DHT22;9453;50.294;18.644;2023-11-19T15:43:42;5.50;99.90
18648;DHT22;9453;50.294;18.644;2023-11-19T15:46:09;5.40;99.90
18648;DHT22;9453;50.294;18.644;2023-11-19T15:48:37;5.40;99.90
18648;DHT22;9453;50.294;18.644;2023-11-19T15:51:04;5.40;99.90
18648;DHT22;9453;50.294;18.644;2023-11-19T15:53:31;5.40;99.90
18648;DHT22;9453;50.294;18.644;2023-11-19T15:56:00;5.40;99.90
18648;DHT22;9453;50.294;18.644;2023-11-19T15:58:29;5.30;99.90
18648;DHT22;9453;50.294;18.644;2023-11-19T16:00:56;5.30;99.90
18648;DHT22;9453;50.294;18.644;2023-11-19T16:03:23;5.20;99.90
18648;DHT22;9453;50.294;18.644;2023-11-19T16:05:50;5.10;99.90
18648;DHT22;9453;50.294;18.644;2023-11-19T16:08:17;5.10;99.90
18648;DHT22;9453;50.294;18.644;2023-11-19T16:10:44;5.10;99.90
18648;DHT22;9453;50.294;18.644;2023-11-19T16:13:14;5.10;99.90
18648;DHT22;9453;50.294;18.644;2023-11-19T16:15:41;5.10;99.90
18648;DHT22;9453;50.294;18.644;2023-11-19T16:18:07;5.10;99.90
18648;DHT22;9453;50.294;18.644;2023-11-19T16:20:39;5.20;99.90
18648;DHT22;9453;50.294;18.644;2023-11-19T16:23:08;5.20;99.90
18648;DHT22;9453;50.294;18.644;2023-11-19T16:25:35;5.20;99.90
18648;DHT22;9453;50.294;18.644;2023-11-19T16:28:03;5.20;99.90
18648;DHT22;9453;50.294;18.644;2023-11-19T16:30:34;5.30;99.90
18648;DHT22;9453;50.294;18.644;2023-11-19T16:33:01;5.30;99.90
18648;DHT22;9453;50.294;18.644;2023-11-19T16:35:28;5.30;99.90
18648;DHT22;9453;50.294;18.644;2023-11-19T16:37:56;5.40;99.90
18648;DHT22;9453;50.294;18.644;2023-11-19T16:40:23;5.40;99.90
18648;DHT22;9453;50.294;18.644;2023-11-19T16:42:50;5.40;99.90
18648;DHT22;9453;50.294;18.644;2023-11-19T16:45:17;5.40;99.90
18648;DHT22;9453;50.294;18.644;2023-11-19T16:47:46;5.40;99.90
18648;DHT22;9453;50.294;18.644;2023-11-19T16:50:13;5.50;99.90
18648;DHT22;9453;50.294;18.644;2023-11-19T16:52:42;5.50;99.90
18648;DHT22;9453;50.294;18.644;2023-11-19T16:55:09;5.50;99.90
18648;DHT22;9453;50.294;18.644;2023-11-19T16:57:39;5.50;99.90
18648;DHT22;9453;50.294;18.644;2023-11-19T17:00:07;5.50;99.90
18648;DHT22;9453;50.294;18.644;2023-11-19T17:02:37;5.60;99.90
18648;DHT22;9453;50.294;18.644;2023-11-19T17:05:09;5.60;99.90
18648;DHT22;9453;50.294;18.644;2023-11-19T17:07:36;5.60;99.90
18648;DHT22;9453;50.294;18.644;2023-11-19T17:10:04;5.60;99.90
18648;DHT22;9453;50.294;18.644;2023-11-19T17:12:32;5.60;99.90
18648;DHT22;9453;50.294;18.644;2023-11-19T17:14:59;5.60;99.90
18648;DHT22;9453;50.294;18.644;2023-11-19T17:17:31;5.60;99.90
18648;DHT22;9453;50.294;18.644;2023-11-19T17:20:00;5.60;99.90
18648;DHT22;9453;50.294;18.644;2023-11-19T17:22:32;5.60;99.90
18648;DHT22;9453;50.294;18.644;2023-11-19T17:25:00;5.60;99.90
18648;DHT22;9453;50.294;18.644;2023-11-19T17:27:28;5.60;99.90
18648;DHT22;9453;50.294;18.644;2023-11-19T17:29:55;5.60;99.90
18648;DHT22;9453;50.294;18.644;2023-11-19T17:32:22;5.60;99.90
18648;DHT22;9453;50.294;18.644;2023-11-19T17:34:49;5.60;99.90
18648;DHT22;9453;50.294;18.644;2023-11-19T17:37:17;5.60;99.90
18648;DHT22;9453;50.294;18.644;2023-11-19T17:39:46;5.60;99.90
18648;DHT22;9453;50.294;18.644;2023-11-19T17:42:13;5.60;99.90
18648;DHT22;9453;50.294;18.644;2023-11-19T17:44:40;5.60;99.90
18648;DHT22;9453;50.294;18.644;2023-11-19T17:47:07;5.60;99.90
18648;DHT22;9453;50.294;18.644;2023-11-19T17:49:34;5.60;99.90
18648;DHT22;9453;50.294;18.644;2023-11-19T17:52:02;5.70;99.90
18648;DHT22;9453;50.294;18.644;2023-11-19T17:54:29;5.70;99.90
18648;DHT22;9453;50.294;18.644;2023-11-19T17:56:57;5.70;99.90
18648;DHT22;9453;50.294;18.644;2023-11-19T17:59:24;5.70;99.90
18648;DHT22;9453;50.294;18.644;2023-11-19T18:01:52;5.70;99.90
18648;DHT22;9453;50.294;18.644;2023-11-19T18:04:23;5.70;99.90
18648;DHT22;9453;50.294;18.644;2023-11-19T18:06:51;5.60;99.90
18648;DHT22;9453;50.294;18.644;2023-11-19T18:09:18;5.50;99.90
18648;DHT22;9453;50.294;18.644;2023-11-19T18:11:46;5.50;99.90
18648;DHT22;9453;50.294;18.644;2023-11-19T18:14:14;5.50;99.90
18648;DHT22;9453;50.294;18.644;2023-11-19T18:16:41;5.50;99.90
18648;DHT22;9453;50.294;18.644;2023-11-19T18:19:10;5.40;99.90
18648;DHT22;9453;50.294;18.644;2023-11-19T18:21:37;5.50;99.90
18648;DHT22;9453;50.294;18.644;2023-11-19T18:24:06;5.50;99.90
18648;DHT22;9453;50.294;18.644;2023-11-19T18:26:34;5.50;99.90
18648;DHT22;9453;50.294;18.644;2023-11-19T18:29:02;5.70;99.90
18648;DHT22;9453;50.294;18.644;2023-11-19T18:31:31;5.60;99.90
18648;DHT22;9453;50.294;18.644;2023-11-19T18:33:58;5.60;99.90
18648;DHT22;9453;50.294;18.644;2023-11-19T18:36:25;5.60;99.90
18648;DHT22;9453;50.294;18.644;2023-11-19T18:38:53;5.60;99.90
18648;DHT22;9453;50.294;18.644;2023-11-19T18:41:20;5.60;99.90
18648;DHT22;9453;50.294;18.644;2023-11-19T18:43:47;5.60;99.90
18648;DHT22;9453;50.294;18.644;2023-11-19T18:46:14;5.70;99.90
18648;DHT22;9453;50.294;18.644;2023-11-19T18:48:43;5.70;99.90
18648;DHT22;9453;50.294;18.644;2023-11-19T18:51:10;5.70;99.90
18648;DHT22;9453;50.294;18.644;2023-11-19T18:53:39;5.80;99.90
18648;DHT22;9453;50.294;18.644;2023-11-19T18:56:07;5.80;99.90
18648;DHT22;9453;50.294;18.644;2023-11-19T18:58:34;5.80;99.90
18648;DHT22;9453;50.294;18.644;2023-11-19T19:01:01;5.80;99.90
18648;DHT22;9453;50.294;18.644;2023-11-19T19:03:28;5.80;99.90
18648;DHT22;9453;50.294;18.644;2023-11-19T19:05:58;5.80;99.90
18648;DHT22;9453;50.294;18.644;2023-11-19T19:08:25;5.80;99.90
18648;DHT22;9453;50.294;18.644;2023-11-19T19:10:52;5.80;99.90
18648;DHT22;9453;50.294;18.644;2023-11-19T19:13:19;5.80;99.90
18648;DHT22;9453;50.294;18.644;2023-11-19T19:15:46;5.70;99.90
18648;DHT22;9453;50.294;18.644;2023-11-19T19:18:13;5.70;99.90
18648;DHT22;9453;50.294;18.644;2023-11-19T19:20:40;5.80;99.90
18648;DHT22;9453;50.294;18.644;2023-11-19T19:23:09;5.80;99.90
18648;DHT22;9453;50.294;18.644;2023-11-19T19:25:36;5.80;99.90
18648;DHT22;9453;50.294;18.644;2023-11-19T19:28:04;5.90;99.90
18648;DHT22;9453;50.294;18.644;2023-11-19T19:30:31;5.90;99.90
18648;DHT22;9453;50.294;18.644;2023-11-19T19:32:59;5.90;99.90
18648;DHT22;9453;50.294;18.644;2023-11-19T19:35:26;5.90;99.90
18648;DHT22;9453;50.294;18.644;2023-11-19T19:37:55;5.90;99.90
18648;DHT22;9453;50.294;18.644;2023-11-19T19:40:24;6.00;99.90
18648;DHT22;9453;50.294;18.644;2023-11-19T19:42:51;6.00;99.90
18648;DHT22;9453;50.294;18.644;2023-11-19T19:45:18;6.00;99.90
18648;DHT22;9453;50.294;18.644;2023-11-19T19:47:45;6.00;99.90
18648;DHT22;9453;50.294;18.644;2023-11-19T19:50:12;6.00;99.90
18648;DHT22;9453;50.294;18.644;2023-11-19T19:52:40;6.10;99.90
18648;DHT22;9453;50.294;18.644;2023-11-19T19:55:07;6.10;99.90
18648;DHT22;9453;50.294;18.644;2023-11-19T19:57:36;6.10;99.90
18648;DHT22;9453;50.294;18.644;2023-11-19T20:00:04;6.10;99.90
18648;DHT22;9453;50.294;18.644;2023-11-19T20:02:35;6.10;99.90
18648;DHT22;9453;50.294;18.644;2023-11-19T20:05:02;6.10;99.90
18648;DHT22;9453;50.294;18.644;2023-11-19T20:07:29;6.10;99.90
18648;DHT22;9453;50.294;18.644;2023-11-19T20:09:55;6.10;99.90
18648;DHT22;9453;50.294;18.644;2023-11-19T20:12:23;6.10;99.90
18648;DHT22;9453;50.294;18.644;2023-11-19T20:14:54;6.10;99.90
18648;DHT22;9453;50.294;18.644;2023-11-19T20:17:22;6.10;99.90
18648;DHT22;9453;50.294;18.644;2023-11-19T20:19:49;6.10;99.90
18648;DHT22;9453;50.294;18.644;2023-11-19T20:22:16;6.10;99.90
18648;DHT22;9453;50.294;18.644;2023-11-19T20:24:43;6.10;99.90
18648;DHT22;9453;50.294;18.644;2023-11-19T20:27:10;6.10;99.90
18648;DHT22;9453;50.294;18.644;2023-11-19T20:29:44;6.10;99.90
18648;DHT22;9453;50.294;18.644;2023-11-19T20:32:13;6.10;99.90
18648;DHT22;9453;50.294;18.644;2023-11-19T20:34:41;6.10;99.90
18648;DHT22;9453;50.294;18.644;2023-11-19T20:37:08;6.10;99.90
18648;DHT22;9453;50.294;18.644;2023-11-19T20:39:35;6.10;99.90
18648;DHT22;9453;50.294;18.644;2023-11-19T20:42:03;6.10;99.90
18648;DHT22;9453;50.294;18.644;2023-11-19T20:44:31;6.10;99.90
18648;DHT22;9453;50.294;18.644;2023-11-19T20:46:58;6.10;99.90
18648;DHT22;9453;50.294;18.644;2023-11-19T20:49:28;6.20;99.90
18648;DHT22;9453;50.294;18.644;2023-11-19T20:51:55;6.20;99.90
18648;DHT22;9453;50.294;18.644;2023-11-19T20:54:22;6.20;99.90